createdAt,value
2023-03-07T00:00:13.077Z,3.33
2023-03-07T00:02:44.037Z,4.25
2023-03-07T00:05:15.008Z,2.95
2023-03-07T00:07:43.439Z,4.13
2023-03-07T00:10:13.049Z,3.35
2023-03-07T00:12:41.445Z,2.67
2023-03-07T00:15:11.040Z,3.83
2023-03-07T00:17:40.416Z,2.97
2023-03-07T00:20:14.532Z,2.83
2023-03-07T00:22:44.117Z,3.03
2023-03-07T00:25:12.672Z,3.17
2023-03-07T00:27:41.577Z,3.35
2023-03-07T00:30:12.604Z,4.82
2023-03-07T00:32:41.238Z,3.72
2023-03-07T00:35:12.009Z,2.28
2023-03-07T00:37:40.492Z,4.50
2023-03-07T00:40:10.890Z,4.72
2023-03-07T00:42:39.350Z,3.00
2023-03-07T00:45:08.975Z,2.25
2023-03-07T00:47:37.419Z,2.50
2023-03-07T00:50:06.706Z,3.90
2023-03-07T00:52:36.744Z,3.40
2023-03-07T00:55:06.134Z,3.05
2023-03-07T00:57:34.813Z,4.15
2023-03-07T01:00:03.352Z,3.55
2023-03-07T01:02:33.502Z,2.00
2023-03-07T01:05:02.231Z,3.95
2023-03-07T01:07:32.070Z,3.53
2023-03-07T01:10:02.108Z,3.35
2023-03-07T01:12:31.962Z,3.65
2023-03-07T01:15:00.735Z,3.45
2023-03-07T01:17:29.516Z,2.88
2023-03-07T01:19:58.022Z,3.60
2023-03-07T01:22:26.544Z,3.15
2023-03-07T01:24:55.035Z,2.58
2023-03-07T01:27:25.028Z,3.28
2023-03-07T01:29:54.280Z,7.03
2023-03-07T01:32:22.928Z,2.88
2023-03-07T01:34:51.611Z,4.13
2023-03-07T01:37:20.242Z,2.95
2023-03-07T01:39:51.650Z,3.72
2023-03-07T01:42:20.965Z,4.20
2023-03-07T01:45:03.952Z,3.08
2023-03-07T01:47:44.854Z,3.75
2023-03-07T01:50:17.114Z,6.57
2023-03-07T01:52:49.036Z,5.35
2023-03-07T01:55:21.621Z,5.85
2023-03-07T01:57:54.681Z,3.85
2023-03-07T02:00:30.036Z,3.60
2023-03-07T02:03:06.050Z,4.95
2023-03-07T02:05:40.902Z,3.70
2023-03-07T02:08:12.916Z,4.03
2023-03-07T02:10:42.836Z,4.13
2023-03-07T02:13:11.943Z,4.18
2023-03-07T02:15:42.653Z,4.05
2023-03-07T02:18:13.339Z,3.55
2023-03-07T02:20:50.049Z,3.20
2023-03-07T02:23:27.670Z,6.00
2023-03-07T02:26:01.615Z,3.17
2023-03-07T02:28:33.293Z,4.20
2023-03-07T02:31:04.956Z,3.42
2023-03-07T02:33:36.300Z,4.10
2023-03-07T02:36:12.512Z,4.80
2023-03-07T02:38:50.366Z,4.28
2023-03-07T02:41:23.765Z,5.18
2023-03-07T02:43:53.616Z,4.15
2023-03-07T02:46:22.112Z,2.88
2023-03-07T02:48:50.823Z,3.65
2023-03-07T02:51:19.712Z,4.32
2023-03-07T02:53:49.234Z,3.53
2023-03-07T02:56:18.140Z,5.53
2023-03-07T02:58:46.980Z,4.15
2023-03-07T03:01:17.034Z,3.20
2023-03-07T03:03:45.953Z,4.38
2023-03-07T03:06:16.233Z,6.18
2023-03-07T03:08:44.848Z,5.47
2023-03-07T03:11:13.435Z,5.10
2023-03-07T03:13:42.019Z,4.03
2023-03-07T03:16:10.560Z,7.30
2023-03-07T03:18:42.261Z,4.28
2023-03-07T03:21:11.747Z,4.90
2023-03-07T03:23:40.993Z,10.95
2023-03-07T03:26:11.928Z,15.60
2023-03-07T03:28:41.674Z,5.43
2023-03-07T03:31:15.265Z,4.05
2023-03-07T03:33:46.038Z,7.75
2023-03-07T03:36:17.282Z,5.40
2023-03-07T03:38:48.589Z,4.68
2023-03-07T03:41:17.189Z,5.15
2023-03-07T03:43:47.691Z,6.28
2023-03-07T03:46:17.053Z,5.85
2023-03-07T03:48:52.714Z,6.97
2023-03-07T03:51:23.524Z,4.00
2023-03-07T03:53:54.831Z,4.45
2023-03-07T03:56:24.560Z,5.82
2023-03-07T03:58:55.370Z,6.22
2023-03-07T04:01:29.362Z,5.72
2023-03-07T04:04:00.483Z,3.50
2023-03-07T04:06:31.872Z,7.18
2023-03-07T04:09:03.337Z,6.57
2023-03-07T04:11:31.904Z,4.55
2023-03-07T04:14:00.980Z,4.63
2023-03-07T04:16:30.116Z,6.57
2023-03-07T04:19:00.495Z,4.63
2023-03-07T04:21:29.143Z,5.00
2023-03-07T04:23:59.696Z,6.70
2023-03-07T04:26:31.648Z,6.35
2023-03-07T04:29:00.342Z,4.43
2023-03-07T04:31:35.510Z,5.75
2023-03-07T04:34:07.470Z,5.28
2023-03-07T04:36:36.188Z,5.45
2023-03-07T04:39:05.214Z,3.78
2023-03-07T04:41:34.222Z,6.22
2023-03-07T04:44:22.992Z,6.72
2023-03-07T04:46:52.167Z,4.93
2023-03-07T04:49:22.060Z,4.90
2023-03-07T04:51:50.488Z,4.95
2023-03-07T04:54:20.157Z,7.05
2023-03-07T04:56:50.629Z,6.10
2023-03-07T04:59:21.309Z,4.15
2023-03-07T05:01:50.013Z,7.32
2023-03-07T05:04:18.674Z,7.22
2023-03-07T05:06:49.516Z,5.18
2023-03-07T05:09:18.887Z,7.60
2023-03-07T05:11:47.391Z,9.07
2023-03-07T05:14:15.852Z,6.25
2023-03-07T05:16:44.391Z,6.05
2023-03-07T05:19:13.505Z,8.55
2023-03-07T05:21:44.323Z,9.43
2023-03-07T05:24:15.629Z,7.38
2023-03-07T05:26:44.190Z,5.63
2023-03-07T05:29:12.775Z,6.13
2023-03-07T05:31:41.295Z,6.47
2023-03-07T05:34:11.507Z,7.68
2023-03-07T05:36:44.688Z,6.03
2023-03-07T05:39:15.644Z,5.70
2023-03-07T05:41:45.204Z,6.05
2023-03-07T05:44:14.404Z,5.72
2023-03-07T05:46:43.117Z,8.82
2023-03-07T05:49:12.864Z,6.85
2023-03-07T05:51:41.279Z,6.15
2023-03-07T05:54:09.794Z,8.20
2023-03-07T05:56:39.759Z,5.05
2023-03-07T05:59:11.374Z,8.20
2023-03-07T06:01:40.208Z,8.60
2023-03-07T06:04:08.970Z,8.60
2023-03-07T06:06:38.897Z,8.32
2023-03-07T06:09:07.519Z,8.10
2023-03-07T06:11:36.140Z,7.82
2023-03-07T06:14:06.796Z,7.85
2023-03-07T06:16:36.016Z,11.50
2023-03-07T06:19:05.401Z,5.60
2023-03-07T06:21:33.956Z,7.07
2023-03-07T06:24:02.533Z,9.05
2023-03-07T06:26:31.127Z,8.88
2023-03-07T06:28:59.598Z,7.60
2023-03-07T06:31:29.883Z,7.95
2023-03-07T06:33:58.857Z,11.13
2023-03-07T06:36:28.509Z,6.22
2023-03-07T06:39:01.040Z,8.15
2023-03-07T06:41:30.272Z,10.65
2023-03-07T06:44:01.148Z,8.15
2023-03-07T06:46:34.219Z,7.43
2023-03-07T06:49:07.872Z,8.27
2023-03-07T06:51:38.085Z,10.68
2023-03-07T06:54:08.141Z,6.90
2023-03-07T06:56:36.891Z,7.50
2023-03-07T06:59:05.583Z,6.97
2023-03-07T07:01:36.223Z,6.13
2023-03-07T07:04:05.560Z,7.75
2023-03-07T07:06:34.143Z,8.45
2023-03-07T07:09:04.404Z,6.70
2023-03-07T07:11:36.464Z,5.75
2023-03-07T07:14:06.579Z,7.10
2023-03-07T07:16:36.614Z,7.90
2023-03-07T07:19:06.513Z,8.73
2023-03-07T07:21:37.688Z,7.50
2023-03-07T07:24:06.568Z,5.80
2023-03-07T07:26:35.240Z,7.75
2023-03-07T07:29:04.016Z,9.40
2023-03-07T07:31:32.917Z,8.98
2023-03-07T07:34:02.838Z,8.82
2023-03-07T07:36:34.479Z,6.82
2023-03-07T07:39:05.317Z,10.13
2023-03-07T07:41:35.491Z,6.95
2023-03-07T07:44:04.340Z,10.52
2023-03-07T07:46:37.732Z,13.02
2023-03-07T07:49:09.786Z,8.10
2023-03-07T07:51:40.925Z,8.95
2023-03-07T07:54:10.268Z,6.70
2023-03-07T07:56:38.868Z,9.52
2023-03-07T07:59:07.323Z,8.93
2023-03-07T08:01:35.912Z,10.68
2023-03-07T08:04:04.483Z,10.75
2023-03-07T08:06:34.426Z,9.02
2023-03-07T08:09:03.287Z,10.85
2023-03-07T08:11:31.780Z,8.73
2023-03-07T08:14:00.234Z,7.45
2023-03-07T08:16:28.739Z,13.80
2023-03-07T08:18:58.713Z,16.48
2023-03-07T08:21:27.617Z,12.63
2023-03-07T08:23:57.922Z,12.82
2023-03-07T08:26:26.839Z,13.32
2023-03-07T08:28:55.409Z,14.07
2023-03-07T08:31:25.650Z,12.23
2023-03-07T08:33:54.471Z,10.15
2023-03-07T08:36:23.399Z,18.50
2023-03-07T08:38:53.088Z,12.30
2023-03-07T08:41:24.479Z,12.98
2023-03-07T08:43:53.005Z,13.27
2023-03-07T08:46:21.769Z,8.43
2023-03-07T08:48:50.905Z,10.00
2023-03-07T08:51:19.753Z,9.63
2023-03-07T08:53:48.699Z,9.88
2023-03-07T08:56:19.774Z,11.77
2023-03-07T08:58:49.592Z,11.23
2023-03-07T09:01:18.009Z,10.02
2023-03-07T09:03:46.588Z,11.20
2023-03-07T09:06:20.014Z,13.38
2023-03-07T09:08:49.058Z,10.90
2023-03-07T09:11:18.239Z,9.07
2023-03-07T09:13:52.396Z,10.73
2023-03-07T09:16:23.629Z,10.90
2023-03-07T09:18:52.199Z,10.95
2023-03-07T09:21:20.938Z,13.15
2023-03-07T09:23:49.612Z,12.38
2023-03-07T09:26:18.224Z,9.07
2023-03-07T09:28:46.699Z,9.10
2023-03-07T09:31:17.193Z,11.05
2023-03-07T09:33:47.349Z,10.95
2023-03-07T09:36:16.686Z,12.00
2023-03-07T09:38:45.722Z,8.55
2023-03-07T09:41:50.170Z,10.82
2023-03-07T09:44:31.513Z,10.15
2023-03-07T09:47:53.127Z,9.23
2023-03-07T09:50:30.571Z,11.50
2023-03-07T09:53:04.247Z,7.97
2023-03-07T09:55:33.660Z,10.57
2023-03-07T09:58:08.005Z,11.55
2023-03-07T10:00:40.509Z,14.50
2023-03-07T10:03:22.745Z,10.02
2023-03-07T10:05:54.807Z,9.88
2023-03-07T10:08:27.913Z,12.13
2023-03-07T10:11:05.970Z,9.85
2023-03-07T10:13:48.541Z,9.75
2023-03-07T10:16:28.302Z,9.05
2023-03-07T10:19:06.433Z,8.80
2023-03-07T10:21:45.749Z,9.30
2023-03-07T10:24:33.818Z,8.73
2023-03-07T10:27:06.747Z,9.07
2023-03-07T10:29:42.931Z,11.77
2023-03-07T10:32:24.233Z,11.65
2023-03-07T10:34:59.402Z,11.15
2023-03-07T10:37:44.043Z,9.35
2023-03-07T10:40:20.972Z,10.18
2023-03-07T10:42:49.673Z,9.63
2023-03-07T10:45:19.379Z,8.77
2023-03-07T10:47:48.339Z,11.25
2023-03-07T10:50:35.495Z,9.95
2023-03-07T10:53:10.790Z,11.20
2023-03-07T10:55:43.956Z,9.45
2023-03-07T10:58:25.114Z,9.20
2023-03-07T11:01:14.820Z,10.13
2023-03-07T11:03:53.631Z,8.48
2023-03-07T11:06:38.094Z,11.10
2023-03-07T11:09:19.399Z,10.50
2023-03-07T11:11:57.490Z,9.25
2023-03-07T11:14:27.435Z,9.52
2023-03-07T11:16:58.395Z,10.38
2023-03-07T11:19:34.988Z,9.65
2023-03-07T11:22:05.230Z,8.00
2023-03-07T11:24:39.500Z,7.93
2023-03-07T11:27:08.203Z,8.07
2023-03-07T11:29:37.050Z,8.60
2023-03-07T11:32:14.921Z,8.60
2023-03-07T11:34:51.363Z,9.20
2023-03-07T11:37:55.574Z,7.10
2023-03-07T11:40:28.564Z,13.05
2023-03-07T11:43:13.016Z,8.73
2023-03-07T11:45:50.688Z,7.18
2023-03-07T11:48:36.226Z,9.13
2023-03-07T11:51:05.901Z,10.40
2023-03-07T11:53:53.765Z,10.23
2023-03-07T11:56:31.073Z,7.40
2023-03-07T11:59:32.088Z,8.15
2023-03-07T12:02:02.834Z,12.25
2023-03-07T12:04:55.173Z,13.95
2023-03-07T12:07:39.538Z,8.80
2023-03-07T12:10:24.192Z,10.15
2023-03-07T12:13:08.038Z,8.00
2023-03-07T12:15:41.549Z,10.38
2023-03-07T12:18:32.341Z,10.77
2023-03-07T12:21:16.774Z,7.60
2023-03-07T12:23:50.089Z,11.00
2023-03-07T12:26:25.406Z,9.75
2023-03-07T12:29:02.165Z,9.38
2023-03-07T12:31:36.316Z,9.13
2023-03-07T12:34:11.043Z,8.75
2023-03-07T12:36:44.438Z,7.57
2023-03-07T12:39:20.864Z,8.38
2023-03-07T12:42:01.454Z,11.80
2023-03-07T12:44:41.817Z,8.80
2023-03-07T12:47:21.303Z,6.97
2023-03-07T12:49:57.958Z,10.25
2023-03-07T12:52:41.210Z,8.90
2023-03-07T12:55:19.978Z,7.93
2023-03-07T12:57:54.707Z,7.13
2023-03-07T13:00:26.229Z,8.70
2023-03-07T13:03:02.013Z,9.25
2023-03-07T13:05:32.257Z,8.85
2023-03-07T13:08:01.431Z,11.38
2023-03-07T13:10:31.617Z,7.60
2023-03-07T13:13:00.223Z,9.23
2023-03-07T13:16:07.098Z,6.68
2023-03-07T13:18:35.717Z,8.40
2023-03-07T13:21:15.510Z,8.32
2023-03-07T13:23:44.146Z,9.57
2023-03-07T13:26:24.569Z,7.80
2023-03-07T13:28:53.768Z,7.97
2023-03-07T13:31:45.766Z,6.70
2023-03-07T13:34:53.153Z,8.10
2023-03-07T13:37:57.055Z,7.97
2023-03-07T13:40:51.277Z,9.30
2023-03-07T13:44:02.201Z,7.68
2023-03-07T13:46:55.770Z,8.63
2023-03-07T13:52:39.516Z,9.02
2023-03-07T13:55:25.687Z,7.28
2023-03-07T13:57:58.887Z,9.57
2023-03-07T14:00:38.844Z,8.60
2023-03-07T14:03:26.399Z,12.50
2023-03-07T14:05:57.838Z,7.20
2023-03-07T14:08:33.196Z,9.75
2023-03-07T14:11:03.900Z,10.88
2023-03-07T14:14:04.747Z,9.77
2023-03-07T14:16:48.440Z,11.95
2023-03-07T14:19:50.281Z,11.68
2023-03-07T14:22:28.597Z,10.35
2023-03-07T14:25:09.863Z,8.20
2023-03-07T14:27:56.069Z,8.57
2023-03-07T14:30:26.377Z,10.25
2023-03-07T14:32:55.488Z,7.63
2023-03-07T14:35:39.925Z,6.53
2023-03-07T14:38:10.860Z,7.88
2023-03-07T14:40:51.846Z,9.50
2023-03-07T14:43:36.474Z,7.30
2023-03-07T14:46:15.491Z,7.60
2023-03-07T14:49:02.540Z,11.05
2023-03-07T14:51:32.358Z,8.10
2023-03-07T14:54:07.389Z,7.22
2023-03-07T14:56:36.490Z,8.65
2023-03-07T14:59:09.499Z,8.52
2023-03-07T15:01:43.143Z,7.32
2023-03-07T15:04:24.963Z,8.20
2023-03-07T15:06:59.183Z,5.43
2023-03-07T15:09:30.308Z,7.53
2023-03-07T15:12:03.557Z,10.88
2023-03-07T15:14:41.818Z,10.48
2023-03-07T15:17:18.112Z,8.77
2023-03-07T15:19:51.329Z,8.73
2023-03-07T15:22:24.960Z,11.15
2023-03-07T15:24:54.651Z,12.43
2023-03-07T15:27:27.065Z,9.68
2023-03-07T15:30:00.720Z,8.48
2023-03-07T15:32:36.218Z,18.13
2023-03-07T15:35:15.783Z,27.00
2023-03-07T15:37:56.061Z,16.20
2023-03-07T15:40:28.238Z,14.50
2023-03-07T15:42:58.865Z,10.38
2023-03-07T15:45:34.661Z,10.60
2023-03-07T15:48:11.048Z,16.02
2023-03-07T15:50:40.960Z,14.05
2023-03-07T15:53:11.900Z,11.70
2023-03-07T15:55:41.404Z,10.90
2023-03-07T15:58:15.882Z,9.32
2023-03-07T16:00:46.301Z,7.47
2023-03-07T16:03:24.913Z,11.30
2023-03-07T16:05:54.464Z,15.02
2023-03-07T16:08:23.881Z,19.00
2023-03-07T16:10:57.809Z,23.73
2023-03-07T16:13:30.881Z,20.95
2023-03-07T16:16:03.713Z,14.65
2023-03-07T16:18:34.383Z,10.60
2023-03-07T16:21:03.522Z,14.38
2023-03-07T16:23:32.622Z,12.55
2023-03-07T16:26:06.800Z,9.50
2023-03-07T16:28:36.273Z,7.18
2023-03-07T16:31:12.777Z,6.20
2023-03-07T16:33:41.801Z,6.22
2023-03-07T16:36:12.397Z,8.20
2023-03-07T16:38:42.387Z,5.50
2023-03-07T16:41:17.980Z,9.57
2023-03-07T16:43:47.758Z,10.32
2023-03-07T16:46:20.036Z,19.10
2023-03-07T16:48:48.841Z,10.98
2023-03-07T16:51:18.822Z,9.40
2023-03-07T16:53:48.226Z,9.35
2023-03-07T16:56:25.319Z,7.93
2023-03-07T16:58:54.466Z,9.93
2023-03-07T17:01:24.834Z,9.32
2023-03-07T17:03:56.624Z,11.43
2023-03-07T17:06:37.084Z,9.35
2023-03-07T17:09:07.195Z,10.73
2023-03-07T17:11:36.029Z,9.93
2023-03-07T17:14:08.887Z,8.55
2023-03-07T17:16:44.774Z,8.32
2023-03-07T17:19:27.572Z,13.38
2023-03-07T17:21:56.639Z,8.88
2023-03-07T17:24:25.664Z,10.52
2023-03-07T17:26:54.928Z,10.93
2023-03-07T17:29:29.688Z,10.15
2023-03-07T17:31:59.720Z,10.65
2023-03-07T17:34:30.143Z,11.75
2023-03-07T17:36:59.286Z,9.90
2023-03-07T17:39:29.568Z,8.15
2023-03-07T17:41:58.675Z,8.38
2023-03-07T17:44:27.241Z,6.18
2023-03-07T17:46:56.796Z,8.65
2023-03-07T17:49:27.331Z,13.50
2023-03-07T17:51:55.728Z,7.97
2023-03-07T17:54:24.285Z,9.43
2023-03-07T17:56:52.755Z,9.35
2023-03-07T17:59:22.450Z,8.50
2023-03-07T18:01:50.941Z,9.27
2023-03-07T18:04:22.345Z,8.13
2023-03-07T18:06:52.510Z,9.07
2023-03-07T18:09:23.154Z,9.40
2023-03-07T18:11:52.201Z,9.57
2023-03-07T18:14:21.122Z,8.60
2023-03-07T18:16:49.922Z,7.25
2023-03-07T18:19:26.155Z,10.85
2023-03-07T18:21:56.782Z,10.90
2023-03-07T18:24:27.508Z,10.25
2023-03-07T18:26:57.181Z,9.23
2023-03-07T18:29:27.849Z,13.00
2023-03-07T18:31:56.336Z,10.10
2023-03-07T18:34:26.236Z,9.27
2023-03-07T18:36:56.424Z,9.95
2023-03-07T18:39:25.650Z,9.73
2023-03-07T18:41:54.138Z,9.55
2023-03-07T18:44:22.888Z,11.70
2023-03-07T18:46:51.408Z,7.78
2023-03-07T18:49:19.918Z,11.75
2023-03-07T18:51:49.208Z,9.55
2023-03-07T18:54:19.470Z,10.43
2023-03-07T18:56:48.564Z,13.07
2023-03-07T18:59:17.538Z,10.30
2023-03-07T19:01:50.337Z,12.60
2023-03-07T19:04:19.336Z,13.80
2023-03-07T19:06:48.724Z,11.30
2023-03-07T19:09:21.209Z,10.88
2023-03-07T19:11:50.004Z,20.77
2023-03-07T19:14:18.697Z,21.60
2023-03-07T19:16:47.269Z,26.02
2023-03-07T19:19:15.851Z,24.40
2023-03-07T19:21:44.483Z,24.90
2023-03-07T19:24:13.492Z,25.95
2023-03-07T19:26:44.086Z,31.60
2023-03-07T19:29:13.285Z,19.52
2023-03-07T19:31:44.033Z,17.80
2023-03-07T19:34:13.134Z,21.98
2023-03-07T19:36:41.886Z,19.65
2023-03-07T19:39:15.282Z,17.83
2023-03-07T19:41:48.116Z,16.77
2023-03-07T19:44:17.312Z,12.38
2023-03-07T19:46:47.371Z,13.93
2023-03-07T19:49:18.983Z,17.02
2023-03-07T19:51:47.660Z,18.38
2023-03-07T19:54:16.934Z,15.80
2023-03-07T19:56:46.789Z,13.43
2023-03-07T19:59:15.734Z,13.10
2023-03-07T20:01:44.744Z,12.95
2023-03-07T20:04:14.531Z,16.25
2023-03-07T20:06:44.251Z,15.45
2023-03-07T20:09:13.834Z,15.18
2023-03-07T20:11:44.016Z,16.58
2023-03-07T20:14:14.621Z,16.42
2023-03-07T20:16:43.322Z,14.02
2023-03-07T20:19:12.246Z,14.05
2023-03-07T20:21:42.564Z,15.73
2023-03-07T20:24:11.093Z,12.07
2023-03-07T20:26:40.882Z,15.55
2023-03-07T20:29:11.324Z,12.98
2023-03-07T20:31:41.848Z,15.57
2023-03-07T20:34:10.513Z,14.73
2023-03-07T20:36:42.572Z,12.48
2023-03-07T20:39:14.682Z,13.70
2023-03-07T20:41:44.078Z,14.60
2023-03-07T20:44:15.148Z,14.13
2023-03-07T20:46:45.188Z,18.08
2023-03-07T20:49:15.440Z,17.08
2023-03-07T20:51:44.575Z,19.83
2023-03-07T20:54:16.281Z,15.93
2023-03-07T20:56:46.192Z,14.23
2023-03-07T20:59:16.687Z,16.75
2023-03-07T21:01:47.519Z,12.50
2023-03-07T21:04:18.583Z,16.40
2023-03-07T21:06:48.861Z,12.55
2023-03-07T21:09:18.951Z,17.77
2023-03-07T21:11:49.304Z,17.20
2023-03-07T21:14:19.137Z,16.98
2023-03-07T21:16:49.414Z,14.80
2023-03-07T21:19:18.040Z,17.85
2023-03-07T21:21:46.726Z,16.13
2023-03-07T21:24:16.316Z,17.38
2023-03-07T21:26:44.961Z,17.83
2023-03-07T21:29:14.282Z,19.60
2023-03-07T21:31:43.183Z,18.80
2023-03-07T21:34:15.313Z,16.10
2023-03-07T21:36:46.070Z,16.05
2023-03-07T21:39:15.356Z,15.02
2023-03-07T21:41:44.193Z,16.00
2023-03-07T21:44:14.674Z,22.38
2023-03-07T21:46:44.388Z,25.23
2023-03-07T21:49:14.427Z,27.10
2023-03-07T21:51:43.186Z,31.50
2023-03-07T21:54:11.945Z,29.63
2023-03-07T21:56:40.736Z,30.92
2023-03-07T21:59:09.564Z,38.92
2023-03-07T22:01:38.504Z,32.92
2023-03-07T22:04:07.469Z,50.88
2023-03-07T22:06:37.834Z,65.95
2023-03-07T22:09:06.532Z,179.93
2023-03-07T22:11:35.266Z,215.73
2023-03-07T22:14:04.177Z,281.83
2023-03-07T22:16:32.876Z,278.33
2023-03-07T22:19:01.606Z,366.30
2023-03-07T22:21:30.597Z,360.33
2023-03-07T22:24:01.393Z,315.15
2023-03-07T22:26:31.458Z,317.08
2023-03-07T22:29:01.266Z,273.85
2023-03-07T22:31:30.156Z,236.63
2023-03-07T22:34:00.240Z,209.30
2023-03-07T22:36:29.073Z,381.67
2023-03-07T22:38:58.108Z,348.98
2023-03-07T22:41:28.494Z,425.23
2023-03-07T22:43:57.298Z,403.05
2023-03-07T22:46:26.244Z,371.70
2023-03-07T22:48:55.746Z,283.00
2023-03-07T22:51:25.846Z,211.98
2023-03-07T22:53:54.953Z,191.00
2023-03-07T22:56:24.900Z,150.93
2023-03-07T22:58:55.701Z,196.77
2023-03-07T23:01:26.463Z,198.38
2023-03-07T23:03:56.642Z,227.57
2023-03-07T23:06:28.209Z,266.58
2023-03-07T23:08:57.751Z,208.82
2023-03-07T23:11:27.379Z,247.68
2023-03-07T23:13:57.962Z,270.08
2023-03-07T23:16:28.514Z,266.42
2023-03-07T23:18:58.797Z,194.02
2023-03-07T23:21:30.210Z,109.38
2023-03-07T23:24:00.152Z,120.07
2023-03-07T23:26:30.908Z,105.28
2023-03-07T23:29:01.683Z,127.20
2023-03-07T23:31:32.680Z,122.15
2023-03-07T23:34:03.215Z,98.60
2023-03-07T23:36:32.791Z,92.93
2023-03-07T23:39:01.795Z,76.05
2023-03-07T23:41:30.692Z,113.97
2023-03-07T23:44:02.182Z,196.13
2023-03-07T23:46:31.715Z,178.23
2023-03-07T23:49:01.273Z,143.77
2023-03-07T23:51:30.239Z,97.90
2023-03-07T23:53:59.101Z,102.97
2023-03-07T23:56:27.848Z,111.38
2023-03-07T23:58:56.536Z,77.85
